createdAt,value
2017-01-30T00:00:27.266Z,1010.05
2017-01-30T00:01:27.273Z,1010.04
2017-01-30T00:02:27.278Z,1010.01
2017-01-30T00:03:27.286Z,1010.03
2017-01-30T00:04:27.289Z,1010.02
2017-01-30T00:05:27.298Z,1010.01
2017-01-30T00:06:27.301Z,1009.97
2017-01-30T00:07:27.356Z,1010.02
2017-01-30T00:08:27.319Z,1009.97
2017-01-30T00:09:27.318Z,1009.93
2017-01-30T00:10:27.326Z,1009.96
2017-01-30T00:11:27.330Z,1009.95
2017-01-30T00:12:27.339Z,1009.89
2017-01-30T00:13:27.344Z,1009.89
2017-01-30T00:14:27.349Z,1009.88
2017-01-30T00:15:27.355Z,1009.93
2017-01-30T00:16:27.362Z,1009.86
2017-01-30T00:17:27.367Z,1009.89
2017-01-30T00:18:27.372Z,1009.89
2017-01-30T00:19:27.379Z,1009.83
2017-01-30T00:20:27.387Z,1009.85
2017-01-30T00:21:27.393Z,1009.85
2017-01-30T00:22:27.407Z,1009.85
2017-01-30T00:23:27.401Z,1009.78
2017-01-30T00:24:27.407Z,1009.79
2017-01-30T00:25:27.413Z,1009.76
2017-01-30T00:26:27.419Z,1009.77
2017-01-30T00:27:27.424Z,1009.71
2017-01-30T00:28:27.433Z,1009.67
2017-01-30T00:29:27.485Z,1009.65
2017-01-30T00:30:27.446Z,1009.66
2017-01-30T00:31:27.450Z,1009.65
2017-01-30T00:32:27.453Z,1009.6
2017-01-30T00:33:27.460Z,1009.62
2017-01-30T00:34:27.465Z,1009.61
2017-01-30T00:35:27.472Z,1009.64
2017-01-30T00:36:27.526Z,1009.6
2017-01-30T00:37:27.484Z,1009.56
2017-01-30T00:38:27.537Z,1009.57
2017-01-30T00:39:27.497Z,1009.6
2017-01-30T00:40:27.499Z,1009.51
2017-01-30T00:41:27.558Z,1009.56
2017-01-30T00:42:27.514Z,1009.53
2017-01-30T00:43:27.520Z,1009.55
2017-01-30T00:44:27.525Z,1009.5
2017-01-30T00:45:27.531Z,1009.41
2017-01-30T00:46:27.537Z,1009.47
2017-01-30T00:47:27.543Z,1009.49
2017-01-30T00:48:27.550Z,1009.47
2017-01-30T00:49:27.553Z,1009.4
2017-01-30T00:50:27.558Z,1009.45
2017-01-30T00:51:27.565Z,1009.41
2017-01-30T00:52:27.621Z,1009.38
2017-01-30T00:53:27.577Z,1009.43
2017-01-30T00:54:27.583Z,1009.39
2017-01-30T00:55:27.589Z,1009.39
2017-01-30T00:56:27.593Z,1009.36
2017-01-30T00:57:27.600Z,1009.3
2017-01-30T00:58:27.610Z,1009.33
2017-01-30T00:59:27.615Z,1009.29
2017-01-30T01:00:27.619Z,1009.3
2017-01-30T01:01:27.624Z,1009.24
2017-01-30T01:02:27.628Z,1009.24
2017-01-30T01:03:27.685Z,1009.24
2017-01-30T01:04:27.642Z,1009.22
2017-01-30T01:05:27.648Z,1009.14
2017-01-30T01:06:27.703Z,1009.18
2017-01-30T01:07:27.659Z,1009.11
2017-01-30T01:08:27.666Z,1009.12
2017-01-30T01:09:27.719Z,1009.13
2017-01-30T01:10:27.676Z,1009.15
2017-01-30T01:11:27.684Z,1009.16
2017-01-30T01:12:27.689Z,1009.11
2017-01-30T01:13:27.749Z,1009.14
2017-01-30T01:14:27.701Z,1009.08
2017-01-30T01:15:27.733Z,1009.12
2017-01-30T01:16:27.712Z,1009.15
2017-01-30T01:17:27.746Z,1009.13
2017-01-30T01:18:27.773Z,1009.06
2017-01-30T01:19:27.729Z,1009.11
2017-01-30T01:20:27.735Z,1009.08
2017-01-30T01:21:27.742Z,1009.08
2017-01-30T01:22:27.747Z,1009.07
2017-01-30T01:23:27.752Z,1009.05
2017-01-30T01:24:27.758Z,1009.05
2017-01-30T01:25:27.764Z,1009.02
2017-01-30T01:26:27.820Z,1008.99
2017-01-30T01:27:27.776Z,1009.05
2017-01-30T01:28:27.781Z,1008.99
2017-01-30T01:29:27.787Z,1008.96
2017-01-30T01:30:27.793Z,1008.97
2017-01-30T01:31:27.797Z,1008.88
2017-01-30T01:32:27.803Z,1008.96
2017-01-30T01:33:27.810Z,1008.92
2017-01-30T01:34:27.816Z,1008.95
2017-01-30T01:35:27.820Z,1008.91
2017-01-30T01:36:27.829Z,1008.88
2017-01-30T01:37:27.837Z,1008.89
2017-01-30T01:38:27.891Z,1008.85
2017-01-30T01:39:27.857Z,1008.77
2017-01-30T01:40:27.851Z,1008.82
2017-01-30T01:41:27.908Z,1008.76
2017-01-30T01:42:27.912Z,1008.8
2017-01-30T01:43:27.869Z,1008.78
2017-01-30T01:44:27.876Z,1008.72
2017-01-30T01:45:27.881Z,1008.7
2017-01-30T01:46:27.887Z,1008.65
2017-01-30T01:47:27.892Z,1008.58
2017-01-30T01:48:27.898Z,1008.57
2017-01-30T01:49:27.905Z,1008.56
2017-01-30T01:50:27.911Z,1008.53
2017-01-30T01:51:27.916Z,1008.56
2017-01-30T01:52:27.922Z,1008.55
2017-01-30T01:53:27.928Z,1008.51
2017-01-30T01:54:27.933Z,1008.49
2017-01-30T01:55:27.991Z,1008.51
2017-01-30T01:56:27.945Z,1008.43
2017-01-30T01:57:27.952Z,1008.46
2017-01-30T01:58:27.958Z,1008.4
2017-01-30T01:59:27.963Z,1008.39
2017-01-30T02:00:27.970Z,1008.37
2017-01-30T02:01:28.025Z,1008.37
2017-01-30T02:02:28.032Z,1008.34
2017-01-30T02:03:27.988Z,1008.26
2017-01-30T02:04:27.994Z,1008.28
2017-01-30T02:05:27.999Z,1008.23
2017-01-30T02:06:28.006Z,1008.2
2017-01-30T02:07:28.011Z,1008.14
2017-01-30T02:08:28.016Z,1008.15
2017-01-30T02:09:28.078Z,1008.1
2017-01-30T02:10:28.028Z,1008.06
2017-01-30T02:11:28.033Z,1008.02
2017-01-30T02:12:28.039Z,1008.01
2017-01-30T02:13:28.096Z,1007.98
2017-01-30T02:14:28.050Z,1007.94
2017-01-30T02:15:28.056Z,1007.89
2017-01-30T02:16:28.061Z,1007.82
2017-01-30T02:17:28.069Z,1007.77
2017-01-30T02:18:28.075Z,1007.76
2017-01-30T02:19:28.081Z,1007.7
2017-01-30T02:20:28.087Z,1007.67
2017-01-30T02:21:28.091Z,1007.63
2017-01-30T02:22:28.097Z,1007.61
2017-01-30T02:23:28.103Z,1007.58
2017-01-30T02:24:28.159Z,1007.54
2017-01-30T02:25:28.169Z,1007.53
2017-01-30T02:26:28.119Z,1007.48
2017-01-30T02:27:28.128Z,1007.47
2017-01-30T02:28:28.136Z,1007.47
2017-01-30T02:29:28.188Z,1007.39
2017-01-30T02:30:28.146Z,1007.35
2017-01-30T02:31:28.150Z,1007.31
2017-01-30T02:32:28.156Z,1007.29
2017-01-30T02:33:28.210Z,1007.23
2017-01-30T02:34:28.169Z,1007.16
2017-01-30T02:35:28.175Z,1007.2
2017-01-30T02:36:28.179Z,1007.13
2017-01-30T02:37:28.185Z,1007.15
2017-01-30T02:38:28.191Z,1007.1
2017-01-30T02:39:28.200Z,1007.07
2017-01-30T02:40:28.253Z,1007
2017-01-30T02:41:28.257Z,1007.03
2017-01-30T02:42:28.216Z,1006.93
2017-01-30T02:43:28.253Z,1006.9
2017-01-30T02:44:28.226Z,1006.86
2017-01-30T02:45:28.236Z,1006.82
2017-01-30T02:46:28.238Z,1006.85
2017-01-30T02:47:28.244Z,1006.75
2017-01-30T02:48:28.303Z,1006.74
2017-01-30T02:49:28.256Z,1006.7
2017-01-30T02:50:28.261Z,1006.67
2017-01-30T02:51:28.319Z,1006.63
2017-01-30T02:52:28.323Z,1006.62
2017-01-30T02:53:28.280Z,1006.61
2017-01-30T02:54:28.285Z,1006.55
2017-01-30T02:55:28.340Z,1006.51
2017-01-30T02:56:28.299Z,1006.53
2017-01-30T02:57:28.303Z,1006.46
2017-01-30T02:58:28.309Z,1006.36
2017-01-30T02:59:28.312Z,1006.32
2017-01-30T03:00:28.321Z,1006.32
2017-01-30T03:01:28.377Z,1006.32
2017-01-30T03:02:28.336Z,1006.29
2017-01-30T03:03:28.343Z,1006.26
2017-01-30T03:04:28.344Z,1006.23
2017-01-30T03:05:28.349Z,1006.27
2017-01-30T03:06:28.354Z,1006.25
2017-01-30T03:07:28.361Z,1006.21
2017-01-30T03:08:28.366Z,1006.27
2017-01-30T03:09:28.373Z,1006.25
2017-01-30T03:10:28.378Z,1006.25
2017-01-30T03:11:28.383Z,1006.2
2017-01-30T03:12:28.389Z,1006.17
2017-01-30T03:13:28.397Z,1006.18
2017-01-30T03:14:28.450Z,1006.2
2017-01-30T03:15:28.458Z,1006.2
2017-01-30T03:16:28.413Z,1006.14
2017-01-30T03:17:28.418Z,1006.21
2017-01-30T03:18:28.424Z,1006.23
2017-01-30T03:19:28.431Z,1006.15
2017-01-30T03:20:28.486Z,1006.15
2017-01-30T03:21:28.496Z,1006.17
2017-01-30T03:22:28.453Z,1006.19
2017-01-30T03:23:28.454Z,1006.08
2017-01-30T03:24:28.460Z,1006.13
2017-01-30T03:25:28.469Z,1006.05
2017-01-30T03:26:28.472Z,1006.1
2017-01-30T03:27:28.478Z,1005.98
2017-01-30T03:28:28.483Z,1006.04
2017-01-30T03:29:28.540Z,1006.04
2017-01-30T03:30:28.547Z,1006.03
2017-01-30T03:31:28.501Z,1005.98
2017-01-30T03:32:28.556Z,1005.99
2017-01-30T03:33:28.513Z,1005.99
2017-01-30T03:34:28.569Z,1005.94
2017-01-30T03:35:28.574Z,1005.93
2017-01-30T03:36:28.536Z,1005.85
2017-01-30T03:37:28.536Z,1005.81
2017-01-30T03:38:28.542Z,1005.88
2017-01-30T03:39:28.548Z,1005.88
2017-01-30T03:40:28.552Z,1005.85
2017-01-30T03:41:28.560Z,1005.85
2017-01-30T03:42:28.566Z,1005.73
2017-01-30T03:43:28.571Z,1005.78
2017-01-30T03:44:28.577Z,1005.75
2017-01-30T03:45:28.581Z,1005.75
2017-01-30T03:46:28.587Z,1005.73
2017-01-30T03:47:28.593Z,1005.66
2017-01-30T03:48:28.599Z,1005.66
2017-01-30T03:49:28.606Z,1005.59
2017-01-30T03:50:28.610Z,1005.59
2017-01-30T03:51:28.617Z,1005.53
2017-01-30T03:52:28.674Z,1005.54
2017-01-30T03:53:28.680Z,1005.5
2017-01-30T03:54:28.635Z,1005.5
2017-01-30T03:55:28.640Z,1005.48
2017-01-30T03:56:28.702Z,1005.41
2017-01-30T03:57:28.651Z,1005.36
2017-01-30T03:58:28.657Z,1005.37
2017-01-30T03:59:28.663Z,1005.37
2017-01-30T04:00:28.670Z,1005.39
2017-01-30T04:01:28.673Z,1005.44
2017-01-30T04:02:28.680Z,1005.4
2017-01-30T04:03:28.686Z,1005.27
2017-01-30T04:04:28.697Z,1005.35
2017-01-30T04:05:28.699Z,1005.31
2017-01-30T04:06:28.704Z,1005.33
2017-01-30T04:07:28.709Z,1005.31
2017-01-30T04:08:28.766Z,1005.3
2017-01-30T04:09:28.721Z,1005.29
2017-01-30T04:10:28.726Z,1005.25
2017-01-30T04:11:28.785Z,1005.26
2017-01-30T04:12:28.737Z,1005.24
2017-01-30T04:13:28.795Z,1005.16
2017-01-30T04:14:28.749Z,1005.18
2017-01-30T04:15:28.756Z,1005.06
2017-01-30T04:16:28.812Z,1004.98
2017-01-30T04:17:28.768Z,1005.07
2017-01-30T04:18:28.774Z,1005.07
2017-01-30T04:19:28.827Z,1005.01
2017-01-30T04:20:28.833Z,1005
2017-01-30T04:21:28.791Z,1004.97
2017-01-30T04:22:28.797Z,1004.9
2017-01-30T04:23:28.852Z,1004.94
2017-01-30T04:24:28.859Z,1004.85
2017-01-30T04:25:28.811Z,1004.94
2017-01-30T04:26:28.821Z,1004.91
2017-01-30T04:27:28.825Z,1004.94
2017-01-30T04:28:28.834Z,1004.95
2017-01-30T04:29:28.838Z,1004.95
2017-01-30T04:30:28.893Z,1004.94
2017-01-30T04:31:28.848Z,1004.91
2017-01-30T04:32:28.905Z,1004.87
2017-01-30T04:33:28.911Z,1004.87
2017-01-30T04:34:28.866Z,1004.86
2017-01-30T04:35:28.972Z,1004.77
2017-01-30T04:36:29.178Z,1004.83
2017-01-30T04:37:28.888Z,1004.76
2017-01-30T04:38:28.891Z,1004.72
2017-01-30T04:39:28.946Z,1004.77
2017-01-30T04:40:28.901Z,1004.76
2017-01-30T04:41:28.905Z,1004.65
2017-01-30T04:42:28.912Z,1004.7
2017-01-30T04:43:28.970Z,1004.69
2017-01-30T04:44:28.924Z,1004.59
2017-01-30T04:45:28.933Z,1004.58
2017-01-30T04:46:28.936Z,1004.61
2017-01-30T04:47:28.991Z,1004.55
2017-01-30T04:48:28.948Z,1004.5
2017-01-30T04:49:28.953Z,1004.5
2017-01-30T04:50:28.959Z,1004.55
2017-01-30T04:51:28.964Z,1004.56
2017-01-30T04:52:28.969Z,1004.42
2017-01-30T04:53:28.979Z,1004.48
2017-01-30T04:54:29.033Z,1004.45
2017-01-30T04:55:28.988Z,1004.33
2017-01-30T04:56:28.994Z,1004.4
2017-01-30T04:57:28.999Z,1004.4
2017-01-30T04:58:29.005Z,1004.45
2017-01-30T04:59:29.010Z,1004.42
2017-01-30T05:00:29.067Z,1004.37
2017-01-30T05:01:29.073Z,1004.45
2017-01-30T05:02:29.079Z,1004.42
2017-01-30T05:03:29.034Z,1004.44
2017-01-30T05:04:29.041Z,1004.39
2017-01-30T05:05:29.047Z,1004.37
2017-01-30T05:06:29.052Z,1004.33
2017-01-30T05:07:29.108Z,1004.36
2017-01-30T05:08:29.064Z,1004.19
2017-01-30T05:09:29.071Z,1004.29
2017-01-30T05:10:29.075Z,1004.25
2017-01-30T05:11:29.080Z,1004.26
2017-01-30T05:12:29.136Z,1004.26
2017-01-30T05:13:29.140Z,1004.22
2017-01-30T05:14:29.097Z,1004.24
2017-01-30T05:15:29.132Z,1004.28
2017-01-30T05:16:29.111Z,1004.19
2017-01-30T05:17:29.118Z,1004.08
2017-01-30T05:18:29.121Z,1004.14
2017-01-30T05:19:29.128Z,1004.15
2017-01-30T05:20:29.134Z,1004.06
2017-01-30T05:21:29.188Z,1004.07
2017-01-30T05:22:29.194Z,1004.07
2017-01-30T05:23:29.201Z,1004.09
2017-01-30T05:24:29.206Z,1003.94
2017-01-30T05:25:29.161Z,1003.96
2017-01-30T05:26:29.218Z,1003.96
2017-01-30T05:27:29.222Z,1003.99
2017-01-30T05:28:29.179Z,1003.99
2017-01-30T05:29:29.185Z,1004.05
2017-01-30T05:30:29.241Z,1003.96
2017-01-30T05:31:29.247Z,1003.95
2017-01-30T05:32:29.202Z,1003.99
2017-01-30T05:33:29.207Z,1004
2017-01-30T05:34:29.214Z,1003.89
2017-01-30T05:35:29.225Z,1003.94
2017-01-30T05:36:29.256Z,1003.93
2017-01-30T05:37:29.279Z,1003.89
2017-01-30T05:38:29.238Z,1003.82
2017-01-30T05:39:29.243Z,1003.81
2017-01-30T05:40:29.249Z,1003.8
2017-01-30T05:41:29.254Z,1003.79
2017-01-30T05:42:29.310Z,1003.79
2017-01-30T05:43:29.265Z,1003.76
2017-01-30T05:44:29.270Z,1003.7
2017-01-30T05:45:29.278Z,1003.76
2017-01-30T05:46:29.283Z,1003.68
2017-01-30T05:47:29.287Z,1003.73
2017-01-30T05:48:29.294Z,1003.67
2017-01-30T05:49:29.328Z,1003.73
2017-01-30T05:50:29.306Z,1003.7
2017-01-30T05:51:29.310Z,1003.7
2017-01-30T05:52:29.318Z,1003.71
2017-01-30T05:53:29.323Z,1003.72
2017-01-30T05:54:29.327Z,1003.7
2017-01-30T05:55:29.334Z,1003.71
2017-01-30T05:56:29.341Z,1003.7
2017-01-30T05:57:29.347Z,1003.73
2017-01-30T05:58:29.351Z,1003.63
2017-01-30T05:59:29.358Z,1003.66
2017-01-30T06:00:29.363Z,1003.62
2017-01-30T06:01:29.371Z,1003.71
2017-01-30T06:02:29.376Z,1003.65
2017-01-30T06:03:29.433Z,1003.65
2017-01-30T06:04:29.388Z,1003.63
2017-01-30T06:05:29.392Z,1003.66
2017-01-30T06:06:29.400Z,1003.66
2017-01-30T06:07:29.403Z,1003.61
2017-01-30T06:08:29.461Z,1003.56
2017-01-30T06:09:29.416Z,1003.6
2017-01-30T06:10:29.422Z,1003.64
2017-01-30T06:11:29.429Z,1003.72
2017-01-30T06:12:29.433Z,1003.74
2017-01-30T06:13:29.438Z,1003.71
2017-01-30T06:14:29.494Z,1003.7
2017-01-30T06:15:29.500Z,1003.76
2017-01-30T06:16:29.505Z,1003.73
2017-01-30T06:17:29.466Z,1003.72
2017-01-30T06:18:29.467Z,1003.75
2017-01-30T06:19:29.474Z,1003.75
2017-01-30T06:20:29.531Z,1003.79
2017-01-30T06:21:29.485Z,1003.65
2017-01-30T06:22:29.491Z,1003.67
2017-01-30T06:23:29.496Z,1003.72
2017-01-30T06:24:29.501Z,1003.68
2017-01-30T06:25:29.557Z,1003.7
2017-01-30T06:26:29.564Z,1003.66
2017-01-30T06:27:29.569Z,1003.69
2017-01-30T06:28:29.575Z,1003.69
2017-01-30T06:29:29.531Z,1003.74
2017-01-30T06:30:29.539Z,1003.76
2017-01-30T06:31:29.591Z,1003.7
2017-01-30T06:32:29.598Z,1003.69
2017-01-30T06:33:29.555Z,1003.64
2017-01-30T06:34:29.559Z,1003.65
2017-01-30T06:35:30.067Z,1003.58
2017-01-30T06:36:29.573Z,1003.66
2017-01-30T06:37:29.631Z,1003.62
2017-01-30T06:38:29.585Z,1003.64
2017-01-30T06:39:29.589Z,1003.61
2017-01-30T06:40:29.597Z,1003.66
2017-01-30T06:41:29.653Z,1003.62
2017-01-30T06:42:29.609Z,1003.6
2017-01-30T06:43:29.615Z,1003.65
2017-01-30T06:44:29.668Z,1003.53
2017-01-30T06:45:29.624Z,1003.58
2017-01-30T06:46:29.680Z,1003.56
2017-01-30T06:47:29.637Z,1003.6
2017-01-30T06:48:29.644Z,1003.63
2017-01-30T06:49:29.697Z,1003.63
2017-01-30T06:50:29.654Z,1003.65
2017-01-30T06:51:29.660Z,1003.63
2017-01-30T06:52:29.664Z,1003.59
2017-01-30T06:53:29.673Z,1003.61
2017-01-30T06:54:29.678Z,1003.63
2017-01-30T06:55:29.683Z,1003.64
2017-01-30T06:56:29.689Z,1003.62
2017-01-30T06:57:29.694Z,1003.65
2017-01-30T06:58:29.752Z,1003.63
2017-01-30T06:59:29.708Z,1003.65
2017-01-30T07:00:29.713Z,1003.66
2017-01-30T07:01:29.769Z,1003.63
2017-01-30T07:02:29.724Z,1003.6
2017-01-30T07:03:29.754Z,1003.61
2017-01-30T07:04:29.737Z,1003.7
2017-01-30T07:05:29.741Z,1003.6
2017-01-30T07:06:29.746Z,1003.59
2017-01-30T07:07:29.752Z,1003.59
2017-01-30T07:08:29.759Z,1003.55
2017-01-30T07:09:29.764Z,1003.59
2017-01-30T07:10:29.771Z,1003.56
2017-01-30T07:11:29.775Z,1003.52
2017-01-30T07:12:29.782Z,1003.54
2017-01-30T07:13:29.839Z,1003.53
2017-01-30T07:14:29.844Z,1003.53
2017-01-30T07:15:29.800Z,1003.56
2017-01-30T07:16:29.806Z,1003.56
2017-01-30T07:17:29.861Z,1003.54
2017-01-30T07:18:29.817Z,1003.52
2017-01-30T07:19:29.822Z,1003.6
2017-01-30T07:20:29.829Z,1003.5
2017-01-30T07:21:29.884Z,1003.5
2017-01-30T07:22:29.839Z,1003.5
2017-01-30T07:23:29.847Z,1003.53
2017-01-30T07:24:29.853Z,1003.51
2017-01-30T07:25:29.858Z,1003.53
2017-01-30T07:26:29.864Z,1003.6
2017-01-30T07:27:29.869Z,1003.62
2017-01-30T07:28:29.878Z,1003.5
2017-01-30T07:29:29.881Z,1003.57
2017-01-30T07:30:29.938Z,1003.58
2017-01-30T07:31:29.892Z,1003.59
2017-01-30T07:32:29.899Z,1003.5
2017-01-30T07:33:29.953Z,1003.52
2017-01-30T07:34:29.961Z,1003.56
2017-01-30T07:35:30.221Z,1003.55
2017-01-30T07:36:29.972Z,1003.59
2017-01-30T07:37:29.928Z,1003.58
2017-01-30T07:38:29.933Z,1003.56
2017-01-30T07:39:29.989Z,1003.57
2017-01-30T07:40:29.994Z,1003.57
2017-01-30T07:41:29.951Z,1003.6
2017-01-30T07:42:29.957Z,1003.55
2017-01-30T07:43:29.962Z,1003.52
2017-01-30T07:44:29.969Z,1003.55
2017-01-30T07:45:29.974Z,1003.59
2017-01-30T07:46:29.982Z,1003.57
2017-01-30T07:47:29.986Z,1003.56
2017-01-30T07:48:29.993Z,1003.55
2017-01-30T07:49:30.051Z,1003.54
2017-01-30T07:50:30.024Z,1003.51
2017-01-30T07:51:30.012Z,1003.55
2017-01-30T07:52:30.017Z,1003.47
2017-01-30T07:53:30.027Z,1003.58
2017-01-30T07:54:30.028Z,1003.47
2017-01-30T07:55:30.035Z,1003.45
2017-01-30T07:56:30.047Z,1003.47
2017-01-30T07:57:30.050Z,1003.46
2017-01-30T07:58:30.055Z,1003.46
2017-01-30T07:59:30.062Z,1003.47
2017-01-30T08:00:30.068Z,1003.45
2017-01-30T08:01:30.123Z,1003.43
2017-01-30T08:02:30.079Z,1003.4
2017-01-30T08:03:30.088Z,1003.37
2017-01-30T08:04:30.091Z,1003.42
2017-01-30T08:05:30.149Z,1003.36
2017-01-30T08:06:30.111Z,1003.42
2017-01-30T08:07:30.111Z,1003.37
2017-01-30T08:08:30.117Z,1003.42
2017-01-30T08:09:30.173Z,1003.44
2017-01-30T08:10:30.132Z,1003.43
2017-01-30T08:11:30.137Z,1003.4
2017-01-30T08:12:30.145Z,1003.4
2017-01-30T08:13:30.201Z,1003.37
2017-01-30T08:14:30.158Z,1003.42
2017-01-30T08:15:30.165Z,1003.41
2017-01-30T08:16:30.169Z,1003.42
2017-01-30T08:17:30.176Z,1003.35
2017-01-30T08:18:30.183Z,1003.38
2017-01-30T08:19:30.193Z,1003.38
2017-01-30T08:20:30.197Z,1003.41
2017-01-30T08:21:30.253Z,1003.4
2017-01-30T08:22:30.211Z,1003.43
2017-01-30T08:23:30.265Z,1003.41
2017-01-30T08:24:30.223Z,1003.45
2017-01-30T08:25:30.229Z,1003.44
2017-01-30T08:26:30.235Z,1003.46
2017-01-30T08:27:30.243Z,1003.5
2017-01-30T08:28:30.300Z,1003.44
2017-01-30T08:29:30.256Z,1003.46
2017-01-30T08:30:30.264Z,1003.39
2017-01-30T08:31:30.268Z,1003.48
2017-01-30T08:32:30.274Z,1003.47
2017-01-30T08:33:30.331Z,1003.52
2017-01-30T08:34:30.289Z,1003.48
2017-01-30T08:35:30.294Z,1003.45
2017-01-30T08:36:30.352Z,1003.46
2017-01-30T08:37:30.308Z,1003.48
2017-01-30T08:38:30.316Z,1003.47
2017-01-30T08:39:30.320Z,1003.47
2017-01-30T08:40:30.329Z,1003.46
2017-01-30T08:41:30.335Z,1003.49
2017-01-30T08:42:30.397Z,1003.48
2017-01-30T08:43:30.347Z,1003.53
2017-01-30T08:44:30.355Z,1003.49
2017-01-30T08:45:30.413Z,1003.51
2017-01-30T08:46:30.366Z,1003.54
2017-01-30T08:47:30.374Z,1003.48
2017-01-30T08:48:30.380Z,1003.53
2017-01-30T08:49:30.392Z,1003.51
2017-01-30T08:50:30.445Z,1003.49
2017-01-30T08:51:30.402Z,1003.49
2017-01-30T08:52:30.407Z,1003.53
2017-01-30T08:53:30.415Z,1003.46
2017-01-30T08:54:30.422Z,1003.5
2017-01-30T08:55:30.429Z,1003.51
2017-01-30T08:56:30.438Z,1003.5
2017-01-30T08:57:30.441Z,1003.45
2017-01-30T08:58:30.450Z,1003.45
2017-01-30T08:59:30.455Z,1003.46
2017-01-30T09:00:30.462Z,1003.49
2017-01-30T09:01:30.470Z,1003.41
2017-01-30T09:02:30.478Z,1003.4
2017-01-30T09:03:30.484Z,1003.4
2017-01-30T09:04:30.540Z,1003.41
2017-01-30T09:05:30.497Z,1003.35
2017-01-30T09:06:30.534Z,1003.31
2017-01-30T09:07:30.512Z,1003.36
2017-01-30T09:08:30.517Z,1003.35
2017-01-30T09:09:30.525Z,1003.37
2017-01-30T09:10:30.583Z,1003.35
2017-01-30T09:11:30.541Z,1003.32
2017-01-30T09:12:30.552Z,1003.35
2017-01-30T09:13:30.605Z,1003.33
2017-01-30T09:14:30.559Z,1003.3
2017-01-30T09:15:30.566Z,1003.32
2017-01-30T09:16:30.574Z,1003.27
2017-01-30T09:17:30.581Z,1003.26
2017-01-30T09:18:30.589Z,1003.3
2017-01-30T09:19:30.595Z,1003.26
2017-01-30T09:20:30.602Z,1003.25
2017-01-30T09:21:30.609Z,1003.21
2017-01-30T09:22:30.616Z,1003.27
2017-01-30T09:23:30.624Z,1003.19
2017-01-30T09:24:30.679Z,1003.18
2017-01-30T09:25:30.687Z,1003.25
2017-01-30T09:26:30.642Z,1003.23
2017-01-30T09:27:30.650Z,1003.22
2017-01-30T09:28:30.657Z,1003.22
2017-01-30T09:29:30.663Z,1003.24
2017-01-30T09:30:30.719Z,1003.26
2017-01-30T09:31:30.677Z,1003.18
2017-01-30T09:32:30.684Z,1003.21
2017-01-30T09:33:30.692Z,1003.17
2017-01-30T09:34:30.697Z,1003.18
2017-01-30T09:35:30.703Z,1003.12
2017-01-30T09:36:30.710Z,1003.09
2017-01-30T09:37:30.768Z,1003.14
2017-01-30T09:38:30.724Z,1003.12
2017-01-30T09:39:30.731Z,1003.13
2017-01-30T09:40:30.737Z,1003.23
2017-01-30T09:41:30.744Z,1003.28
2017-01-30T09:42:30.752Z,1003.25
2017-01-30T09:43:30.758Z,1003.2
2017-01-30T09:44:30.766Z,1003.19
2017-01-30T09:45:30.773Z,1003.22
2017-01-30T09:46:30.779Z,1003.25
2017-01-30T09:47:30.801Z,1003.24
2017-01-30T09:48:30.793Z,1003.3
2017-01-30T09:49:30.802Z,1003.24
2017-01-30T09:50:30.809Z,1003.27
2017-01-30T09:51:30.813Z,1003.2
2017-01-30T09:52:30.870Z,1003.26
2017-01-30T09:53:30.848Z,1003.22
2017-01-30T09:54:30.835Z,1003.2
2017-01-30T09:55:30.842Z,1003.29
2017-01-30T09:56:30.849Z,1003.25
2017-01-30T09:57:30.857Z,1003.24
2017-01-30T09:58:30.864Z,1003.26
2017-01-30T09:59:30.870Z,1003.24
2017-01-30T10:00:30.880Z,1003.29
2017-01-30T10:01:30.886Z,1003.23
2017-01-30T10:02:30.894Z,1003.27
2017-01-30T10:03:30.900Z,1003.25
2017-01-30T10:04:30.907Z,1003.26
2017-01-30T10:05:30.922Z,1003.25
2017-01-30T10:06:30.921Z,1003.25
2017-01-30T10:07:30.929Z,1003.23
2017-01-30T10:08:30.985Z,1003.28
2017-01-30T10:09:30.942Z,1003.22
2017-01-30T10:10:30.948Z,1003.28
2017-01-30T10:11:30.955Z,1003.24
2017-01-30T10:12:31.063Z,1003.22
2017-01-30T10:13:31.070Z,1003.22
2017-01-30T10:14:30.976Z,1003.23
2017-01-30T10:15:30.983Z,1003.2
2017-01-30T10:16:30.992Z,1003.16
2017-01-30T10:17:31.024Z,1003.13
2017-01-30T10:18:31.053Z,1003.2
2017-01-30T10:19:31.010Z,1003.22
2017-01-30T10:20:31.066Z,1003.11
2017-01-30T10:21:31.023Z,1003.12
2017-01-30T10:22:31.031Z,1003.16
2017-01-30T10:23:31.037Z,1003.17
2017-01-30T10:24:31.044Z,1003.15
2017-01-30T10:25:31.049Z,1003.15
2017-01-30T10:26:31.059Z,1003.13
2017-01-30T10:27:31.115Z,1003.11
2017-01-30T10:28:31.071Z,1003.08
2017-01-30T10:29:31.077Z,1003.09
2017-01-30T10:30:31.085Z,1003.08
2017-01-30T10:31:31.091Z,1003.06
2017-01-30T10:32:31.097Z,1003.08
2017-01-30T10:33:31.154Z,1003.06
2017-01-30T10:34:31.111Z,1003.07
2017-01-30T10:35:31.117Z,1003.07
2017-01-30T10:36:31.125Z,1003.04
2017-01-30T10:37:31.185Z,1003.03
2017-01-30T10:38:31.136Z,1003.05
2017-01-30T10:39:31.194Z,1003.07
2017-01-30T10:40:31.151Z,1003.04
2017-01-30T10:41:31.208Z,1002.94
2017-01-30T10:42:31.165Z,1002.97
2017-01-30T10:43:32.119Z,1002.98
2017-01-30T10:44:31.176Z,1003.08
2017-01-30T10:45:31.184Z,1003.01
2017-01-30T10:46:31.191Z,1002.96
2017-01-30T10:47:31.199Z,1002.96
2017-01-30T10:48:31.254Z,1002.96
2017-01-30T10:49:31.211Z,1002.94
2017-01-30T10:50:31.217Z,1002.9
2017-01-30T10:51:31.225Z,1002.95
2017-01-30T10:52:31.231Z,1002.88
2017-01-30T10:53:31.237Z,1002.98
2017-01-30T10:54:31.295Z,1002.91
2017-01-30T10:55:31.250Z,1002.92
2017-01-30T10:56:31.309Z,1002.99
2017-01-30T10:57:31.267Z,1002.9
2017-01-30T10:58:31.271Z,1002.92
2017-01-30T10:59:31.279Z,1002.9
2017-01-30T11:00:31.285Z,1002.9
2017-01-30T11:01:31.291Z,1002.91
2017-01-30T11:02:31.297Z,1002.89
2017-01-30T11:03:31.306Z,1002.88
2017-01-30T11:04:31.313Z,1002.88
2017-01-30T11:05:31.318Z,1002.86
2017-01-30T11:06:31.326Z,1002.87
2017-01-30T11:07:31.384Z,1002.93
2017-01-30T11:08:31.390Z,1002.88
2017-01-30T11:09:31.347Z,1002.87
2017-01-30T11:10:31.353Z,1002.84
2017-01-30T11:11:31.409Z,1002.82
2017-01-30T11:12:31.368Z,1002.83
2017-01-30T11:13:31.372Z,1002.89
2017-01-30T11:14:31.429Z,1002.84
2017-01-30T11:15:31.437Z,1002.77
2017-01-30T11:16:31.390Z,1002.81
2017-01-30T11:17:31.398Z,1002.82
2017-01-30T11:18:31.405Z,1002.77
2017-01-30T11:19:31.464Z,1002.75
2017-01-30T11:20:31.471Z,1002.77
2017-01-30T11:21:31.478Z,1002.7
2017-01-30T11:22:31.436Z,1002.75
2017-01-30T11:23:31.442Z,1002.73
2017-01-30T11:24:31.448Z,1002.73
2017-01-30T11:25:31.457Z,1002.72
2017-01-30T11:26:31.512Z,1002.74
2017-01-30T11:27:31.475Z,1002.76
2017-01-30T11:28:31.477Z,1002.76
2017-01-30T11:29:31.513Z,1002.74
2017-01-30T11:30:31.544Z,1002.67
2017-01-30T11:31:31.545Z,1002.64
2017-01-30T11:32:31.503Z,1002.69
2017-01-30T11:33:31.510Z,1002.71
2017-01-30T11:34:31.567Z,1002.72
2017-01-30T11:35:31.575Z,1002.65
2017-01-30T11:36:31.583Z,1002.75
2017-01-30T11:37:31.538Z,1002.7
2017-01-30T11:38:31.844Z,1002.75
2017-01-30T11:39:31.553Z,1002.68
2017-01-30T11:40:31.557Z,1002.77
2017-01-30T11:41:31.565Z,1002.76
2017-01-30T11:42:31.572Z,1002.7
2017-01-30T11:44:31.592Z,1002.74
2017-01-30T11:45:31.598Z,1002.78
2017-01-30T11:46:31.600Z,1002.74
2017-01-30T11:47:31.607Z,1002.74
2017-01-30T11:48:31.615Z,1002.71
2017-01-30T11:49:31.622Z,1002.69
2017-01-30T11:50:31.678Z,1002.71
2017-01-30T11:51:31.791Z,1002.72
2017-01-30T11:52:31.642Z,1002.74
2017-01-30T11:53:31.651Z,1002.7
2017-01-30T11:54:31.654Z,1002.74
2017-01-30T11:55:31.663Z,1002.74
2017-01-30T11:56:31.666Z,1002.72
2017-01-30T11:57:31.675Z,1002.66
2017-01-30T11:58:32.182Z,1002.7
2017-01-30T11:59:31.690Z,1002.68
2017-01-30T12:00:31.746Z,1002.7
2017-01-30T12:01:31.704Z,1002.68
2017-01-30T12:02:31.710Z,1002.72
2017-01-30T12:03:31.716Z,1002.74
2017-01-30T12:04:31.773Z,1002.68
2017-01-30T12:05:31.729Z,1002.65
2017-01-30T12:06:31.736Z,1002.69
2017-01-30T12:07:31.793Z,1002.64
2017-01-30T12:08:31.779Z,1002.66
2017-01-30T12:09:31.757Z,1002.64